sensor_id;sensor_type;location;lat;lon;timestamp;temperature;humidity
56076;DHT22;41951;49.022;12.066;2023-06-10T00:00:20;18.60;99.90
56076;DHT22;41951;49.022;12.066;2023-06-10T00:02:46;18.60;99.90
56076;DHT22;41951;49.022;12.066;2023-06-10T00:05:12;18.60;99.90
56076;DHT22;41951;49.022;12.066;2023-06-10T00:07:37;18.60;99.90
56076;DHT22;41951;49.022;12.066;2023-06-10T00:10:05;18.50;99.90
56076;DHT22;41951;49.022;12.066;2023-06-10T00:12:32;18.50;99.90
56076;DHT22;41951;49.022;12.066;2023-06-10T00:15:03;18.40;99.90
56076;DHT22;41951;49.022;12.066;2023-06-10T00:17:31;18.40;99.90
56076;DHT22;41951;49.022;12.066;2023-06-10T00:19:56;18.50;99.90
56076;DHT22;41951;49.022;12.066;2023-06-10T00:22:23;18.30;99.90
56076;DHT22;41951;49.022;12.066;2023-06-10T00:24:55;18.30;99.90
56076;DHT22;41951;49.022;12.066;2023-06-10T00:27:21;18.30;99.90
56076;DHT22;41951;49.022;12.066;2023-06-10T00:29:47;18.30;99.90
56076;DHT22;41951;49.022;12.066;2023-06-10T00:32:12;18.30;99.90
56076;DHT22;41951;49.022;12.066;2023-06-10T00:34:38;18.10;99.90
56076;DHT22;41951;49.022;12.066;2023-06-10T00:37:04;18.10;99.90
56076;DHT22;41951;49.022;12.066;2023-06-10T00:39:29;17.90;99.90
56076;DHT22;41951;49.022;12.066;2023-06-10T00:41:55;17.70;99.90
56076;DHT22;41951;49.022;12.066;2023-06-10T00:44:21;17.70;99.90
56076;DHT22;41951;49.022;12.066;2023-06-10T00:46:46;17.70;99.90
56076;DHT22;41951;49.022;12.066;2023-06-10T00:49:13;17.70;99.90
56076;DHT22;41951;49.022;12.066;2023-06-10T00:51:38;17.70;99.90
56076;DHT22;41951;49.022;12.066;2023-06-10T00:54:05;17.90;99.90
56076;DHT22;41951;49.022;12.066;2023-06-10T00:56:33;17.80;99.90
56076;DHT22;41951;49.022;12.066;2023-06-10T00:59:00;17.80;99.90
56076;DHT22;41951;49.022;12.066;2023-06-10T01:01:25;17.70;99.90
56076;DHT22;41951;49.022;12.066;2023-06-10T01:03:51;17.80;99.90
56076;DHT22;41951;49.022;12.066;2023-06-10T01:06:41;17.70;99.90
56076;DHT22;41951;49.022;12.066;2023-06-10T01:09:26;17.70;99.90
56076;DHT22;41951;49.022;12.066;2023-06-10T01:12:19;17.80;99.90
56076;DHT22;41951;49.022;12.066;2023-06-10T01:14:45;17.70;99.90
56076;DHT22;41951;49.022;12.066;2023-06-10T01:17:12;17.80;99.90
56076;DHT22;41951;49.022;12.066;2023-06-10T01:19:41;17.80;99.90
56076;DHT22;41951;49.022;12.066;2023-06-10T01:22:09;17.70;99.90
56076;DHT22;41951;49.022;12.066;2023-06-10T01:24:36;17.70;99.90
56076;DHT22;41951;49.022;12.066;2023-06-10T01:27:05;17.70;99.90
56076;DHT22;41951;49.022;12.066;2023-06-10T01:29:50;17.60;99.90
56076;DHT22;41951;49.022;12.066;2023-06-10T01:32:27;17.60;99.90
56076;DHT22;41951;49.022;12.066;2023-06-10T01:34:55;17.50;99.90
56076;DHT22;41951;49.022;12.066;2023-06-10T01:37:23;17.40;99.90
56076;DHT22;41951;49.022;12.066;2023-06-10T01:39:50;17.40;99.90
56076;DHT22;41951;49.022;12.066;2023-06-10T01:42:17;17.30;99.90
56076;DHT22;41951;49.022;12.066;2023-06-10T01:44:43;17.30;99.90
56076;DHT22;41951;49.022;12.066;2023-06-10T01:47:08;17.30;99.90
56076;DHT22;41951;49.022;12.066;2023-06-10T01:49:34;17.30;99.90
56076;DHT22;41951;49.022;12.066;2023-06-10T01:52:00;17.40;99.90
56076;DHT22;41951;49.022;12.066;2023-06-10T01:54:25;17.40;99.90
56076;DHT22;41951;49.022;12.066;2023-06-10T01:56:51;17.40;99.90
56076;DHT22;41951;49.022;12.066;2023-06-10T01:59:17;17.40;99.90
56076;DHT22;41951;49.022;12.066;2023-06-10T02:01:42;17.30;99.90
56076;DHT22;41951;49.022;12.066;2023-06-10T02:04:08;17.20;99.90
56076;DHT22;41951;49.022;12.066;2023-06-10T02:06:33;17.00;99.90
56076;DHT22;41951;49.022;12.066;2023-06-10T02:09:00;17.00;99.90
56076;DHT22;41951;49.022;12.066;2023-06-10T02:11:26;17.00;99.90
56076;DHT22;41951;49.022;12.066;2023-06-10T02:13:52;16.90;99.90
56076;DHT22;41951;49.022;12.066;2023-06-10T02:16:17;16.80;99.90
56076;DHT22;41951;49.022;12.066;2023-06-10T02:18:44;16.80;99.90
56076;DHT22;41951;49.022;12.066;2023-06-10T02:21:09;16.90;99.90
56076;DHT22;41951;49.022;12.066;2023-06-10T02:23:35;17.00;99.90
56076;DHT22;41951;49.022;12.066;2023-06-10T02:26:01;17.00;99.90
56076;DHT22;41951;49.022;12.066;2023-06-10T02:28:27;16.90;99.90
56076;DHT22;41951;49.022;12.066;2023-06-10T02:30:53;16.80;99.90
56076;DHT22;41951;49.022;12.066;2023-06-10T02:33:18;16.80;99.90
56076;DHT22;41951;49.022;12.066;2023-06-10T02:35:45;16.80;99.90
56076;DHT22;41951;49.022;12.066;2023-06-10T02:38:11;16.90;99.90
56076;DHT22;41951;49.022;12.066;2023-06-10T02:40:36;16.90;99.90
56076;DHT22;41951;49.022;12.066;2023-06-10T02:43:02;16.90;99.90
56076;DHT22;41951;49.022;12.066;2023-06-10T02:45:27;16.90;99.90
56076;DHT22;41951;49.022;12.066;2023-06-10T02:47:53;16.80;99.90
56076;DHT22;41951;49.022;12.066;2023-06-10T02:50:19;16.70;99.90
56076;DHT22;41951;49.022;12.066;2023-06-10T02:52:45;16.70;99.90
56076;DHT22;41951;49.022;12.066;2023-06-10T02:55:10;16.60;99.90
56076;DHT22;41951;49.022;12.066;2023-06-10T02:57:36;16.50;99.90
56076;DHT22;41951;49.022;12.066;2023-06-10T03:00:02;16.50;99.90
56076;DHT22;41951;49.022;12.066;2023-06-10T03:02:29;16.40;99.90
56076;DHT22;41951;49.022;12.066;2023-06-10T03:04:57;16.30;99.90
56076;DHT22;41951;49.022;12.066;2023-06-10T03:07:23;16.20;99.90
56076;DHT22;41951;49.022;12.066;2023-06-10T03:09:49;16.30;99.90
56076;DHT22;41951;49.022;12.066;2023-06-10T03:12:15;16.30;99.90
56076;DHT22;41951;49.022;12.066;2023-06-10T03:14:41;16.30;99.90
56076;DHT22;41951;49.022;12.066;2023-06-10T03:17:07;16.40;99.90
56076;DHT22;41951;49.022;12.066;2023-06-10T03:19:34;16.30;99.90
56076;DHT22;41951;49.022;12.066;2023-06-10T03:22:11;16.20;99.90
56076;DHT22;41951;49.022;12.066;2023-06-10T03:24:37;16.20;99.90
56076;DHT22;41951;49.022;12.066;2023-06-10T03:27:06;16.30;99.90
56076;DHT22;41951;49.022;12.066;2023-06-10T03:29:32;16.30;99.90
56076;DHT22;41951;49.022;12.066;2023-06-10T03:31:57;16.40;99.90
56076;DHT22;41951;49.022;12.066;2023-06-10T03:34:23;16.50;99.90
56076;DHT22;41951;49.022;12.066;2023-06-10T03:36:49;16.40;99.90
56076;DHT22;41951;49.022;12.066;2023-06-10T03:39:15;16.40;99.90
56076;DHT22;41951;49.022;12.066;2023-06-10T03:41:41;16.40;99.90
56076;DHT22;41951;49.022;12.066;2023-06-10T03:44:06;16.40;99.90
56076;DHT22;41951;49.022;12.066;2023-06-10T03:46:32;16.30;99.90
56076;DHT22;41951;49.022;12.066;2023-06-10T03:48:57;16.30;99.90
56076;DHT22;41951;49.022;12.066;2023-06-10T03:51:26;16.30;99.90
56076;DHT22;41951;49.022;12.066;2023-06-10T03:53:51;16.40;99.90
56076;DHT22;41951;49.022;12.066;2023-06-10T03:56:17;16.40;99.90
56076;DHT22;41951;49.022;12.066;2023-06-10T03:58:43;16.40;99.90
56076;DHT22;41951;49.022;12.066;2023-06-10T04:01:08;16.50;99.90
56076;DHT22;41951;49.022;12.066;2023-06-10T04:03:34;16.40;99.90
56076;DHT22;41951;49.022;12.066;2023-06-10T04:05:59;16.40;99.90
56076;DHT22;41951;49.022;12.066;2023-06-10T04:08:25;16.40;99.90
56076;DHT22;41951;49.022;12.066;2023-06-10T04:10:51;16.50;99.90
56076;DHT22;41951;49.022;12.066;2023-06-10T04:13:16;16.50;99.90
56076;DHT22;41951;49.022;12.066;2023-06-10T04:15:42;16.50;99.90
56076;DHT22;41951;49.022;12.066;2023-06-10T04:18:08;16.60;99.90
56076;DHT22;41951;49.022;12.066;2023-06-10T04:20:33;16.50;99.90
56076;DHT22;41951;49.022;12.066;2023-06-10T04:22:59;16.50;99.90
56076;DHT22;41951;49.022;12.066;2023-06-10T04:25:25;16.60;99.90
56076;DHT22;41951;49.022;12.066;2023-06-10T04:27:51;16.60;99.90
56076;DHT22;41951;49.022;12.066;2023-06-10T04:30:17;16.70;99.90
56076;DHT22;41951;49.022;12.066;2023-06-10T04:32:43;16.80;99.90
56076;DHT22;41951;49.022;12.066;2023-06-10T04:35:12;16.80;99.90
56076;DHT22;41951;49.022;12.066;2023-06-10T04:37:38;17.00;99.90
56076;DHT22;41951;49.022;12.066;2023-06-10T04:40:04;16.90;99.90
56076;DHT22;41951;49.022;12.066;2023-06-10T04:42:30;16.40;99.90
56076;DHT22;41951;49.022;12.066;2023-06-10T04:44:55;17.00;99.90
56076;DHT22;41951;49.022;12.066;2023-06-10T04:47:21;17.10;99.90
56076;DHT22;41951;49.022;12.066;2023-06-10T04:49:46;17.10;99.90
56076;DHT22;41951;49.022;12.066;2023-06-10T04:52:12;17.20;99.90
56076;DHT22;41951;49.022;12.066;2023-06-10T04:54:39;17.30;99.90
56076;DHT22;41951;49.022;12.066;2023-06-10T04:57:06;17.30;99.90
56076;DHT22;41951;49.022;12.066;2023-06-10T04:59:33;17.40;99.90
56076;DHT22;41951;49.022;12.066;2023-06-10T05:01:58;17.50;99.90
56076;DHT22;41951;49.022;12.066;2023-06-10T05:04:24;17.60;99.90
56076;DHT22;41951;49.022;12.066;2023-06-10T05:06:50;17.70;99.90
56076;DHT22;41951;49.022;12.066;2023-06-10T05:09:15;17.80;99.90
56076;DHT22;41951;49.022;12.066;2023-06-10T05:11:41;17.80;99.90
56076;DHT22;41951;49.022;12.066;2023-06-10T05:14:06;17.90;99.90
56076;DHT22;41951;49.022;12.066;2023-06-10T05:16:32;18.00;99.90
56076;DHT22;41951;49.022;12.066;2023-06-10T05:18:58;18.00;99.90
56076;DHT22;41951;49.022;12.066;2023-06-10T05:21:23;18.10;99.90
56076;DHT22;41951;49.022;12.066;2023-06-10T05:23:49;18.00;99.90
56076;DHT22;41951;49.022;12.066;2023-06-10T05:26:15;18.20;99.90
56076;DHT22;41951;49.022;12.066;2023-06-10T05:28:40;18.20;99.90
56076;DHT22;41951;49.022;12.066;2023-06-10T05:31:06;18.30;99.90
56076;DHT22;41951;49.022;12.066;2023-06-10T05:33:32;18.30;99.90
56076;DHT22;41951;49.022;12.066;2023-06-10T05:35:58;18.40;99.90
56076;DHT22;41951;49.022;12.066;2023-06-10T05:38:23;18.40;99.90
56076;DHT22;41951;49.022;12.066;2023-06-10T05:40:49;18.50;99.90
56076;DHT22;41951;49.022;12.066;2023-06-10T05:43:14;18.60;99.90
56076;DHT22;41951;49.022;12.066;2023-06-10T05:45:42;18.70;99.90
56076;DHT22;41951;49.022;12.066;2023-06-10T05:48:07;18.80;99.90
56076;DHT22;41951;49.022;12.066;2023-06-10T05:50:34;18.90;99.90
56076;DHT22;41951;49.022;12.066;2023-06-10T05:53:04;18.90;99.90
56076;DHT22;41951;49.022;12.066;2023-06-10T05:55:29;19.00;99.90
56076;DHT22;41951;49.022;12.066;2023-06-10T05:57:59;19.10;99.90
56076;DHT22;41951;49.022;12.066;2023-06-10T06:00:25;19.10;99.90
56076;DHT22;41951;49.022;12.066;2023-06-10T06:02:51;19.20;99.90
56076;DHT22;41951;49.022;12.066;2023-06-10T06:05:18;19.20;99.90
56076;DHT22;41951;49.022;12.066;2023-06-10T06:07:43;19.20;99.90
56076;DHT22;41951;49.022;12.066;2023-06-10T06:10:09;19.20;99.90
56076;DHT22;41951;49.022;12.066;2023-06-10T06:12:34;19.30;99.90
56076;DHT22;41951;49.022;12.066;2023-06-10T06:15:00;19.40;99.90
56076;DHT22;41951;49.022;12.066;2023-06-10T06:17:25;19.40;99.90
56076;DHT22;41951;49.022;12.066;2023-06-10T06:19:51;19.40;99.90
56076;DHT22;41951;49.022;12.066;2023-06-10T06:22:17;19.50;99.90
56076;DHT22;41951;49.022;12.066;2023-06-10T06:24:46;19.60;99.90
56076;DHT22;41951;49.022;12.066;2023-06-10T06:27:12;19.70;99.90
56076;DHT22;41951;49.022;12.066;2023-06-10T06:29:37;19.80;99.90
56076;DHT22;41951;49.022;12.066;2023-06-10T06:32:03;19.90;99.90
56076;DHT22;41951;49.022;12.066;2023-06-10T06:34:29;19.90;99.90
56076;DHT22;41951;49.022;12.066;2023-06-10T06:36:55;20.00;99.90
56076;DHT22;41951;49.022;12.066;2023-06-10T06:39:20;20.10;99.90
56076;DHT22;41951;49.022;12.066;2023-06-10T06:41:46;20.10;99.90
56076;DHT22;41951;49.022;12.066;2023-06-10T06:44:11;20.20;99.90
56076;DHT22;41951;49.022;12.066;2023-06-10T06:46:37;20.20;99.90
56076;DHT22;41951;49.022;12.066;2023-06-10T06:49:02;20.40;99.90
56076;DHT22;41951;49.022;12.066;2023-06-10T06:51:28;20.40;99.90
56076;DHT22;41951;49.022;12.066;2023-06-10T06:53:53;20.50;99.90
56076;DHT22;41951;49.022;12.066;2023-06-10T06:56:22;20.50;99.90
56076;DHT22;41951;49.022;12.066;2023-06-10T06:58:47;20.60;99.90
56076;DHT22;41951;49.022;12.066;2023-06-10T07:01:13;20.60;99.90
56076;DHT22;41951;49.022;12.066;2023-06-10T07:03:39;20.70;99.90
56076;DHT22;41951;49.022;12.066;2023-06-10T07:06:04;20.80;99.90
56076;DHT22;41951;49.022;12.066;2023-06-10T07:08:30;20.90;99.90
56076;DHT22;41951;49.022;12.066;2023-06-10T07:10:56;21.00;99.90
56076;DHT22;41951;49.022;12.066;2023-06-10T07:13:21;21.20;99.90
56076;DHT22;41951;49.022;12.066;2023-06-10T07:15:47;21.30;99.90
56076;DHT22;41951;49.022;12.066;2023-06-10T07:18:14;21.20;99.90
56076;DHT22;41951;49.022;12.066;2023-06-10T07:20:40;21.20;99.90
56076;DHT22;41951;49.022;12.066;2023-06-10T07:23:06;21.20;99.90
56076;DHT22;41951;49.022;12.066;2023-06-10T07:25:32;21.30;99.90
56076;DHT22;41951;49.022;12.066;2023-06-10T07:27:57;21.40;99.90
56076;DHT22;41951;49.022;12.066;2023-06-10T07:30:23;21.30;99.90
56076;DHT22;41951;49.022;12.066;2023-06-10T07:32:49;21.40;99.90
56076;DHT22;41951;49.022;12.066;2023-06-10T07:35:14;21.60;99.90
56076;DHT22;41951;49.022;12.066;2023-06-10T07:37:40;21.60;99.90
56076;DHT22;41951;49.022;12.066;2023-06-10T07:40:06;21.70;99.90
56076;DHT22;41951;49.022;12.066;2023-06-10T07:42:34;21.80;99.90
56076;DHT22;41951;49.022;12.066;2023-06-10T07:44:59;21.90;99.90
56076;DHT22;41951;49.022;12.066;2023-06-10T07:47:25;21.60;99.90
56076;DHT22;41951;49.022;12.066;2023-06-10T07:49:51;21.70;99.90
56076;DHT22;41951;49.022;12.066;2023-06-10T07:52:17;21.80;99.90
56076;DHT22;41951;49.022;12.066;2023-06-10T07:54:42;21.90;99.90
56076;DHT22;41951;49.022;12.066;2023-06-10T07:57:08;21.90;99.90
56076;DHT22;41951;49.022;12.066;2023-06-10T07:59:34;21.80;99.90
56076;DHT22;41951;49.022;12.066;2023-06-10T08:01:59;21.80;99.90
56076;DHT22;41951;49.022;12.066;2023-06-10T08:04:25;21.90;99.90
56076;DHT22;41951;49.022;12.066;2023-06-10T08:06:50;21.80;99.90
56076;DHT22;41951;49.022;12.066;2023-06-10T08:09:16;21.90;99.90
56076;DHT22;41951;49.022;12.066;2023-06-10T08:11:42;21.70;99.90
56076;DHT22;41951;49.022;12.066;2023-06-10T08:14:07;21.60;99.90
56076;DHT22;41951;49.022;12.066;2023-06-10T08:16:33;21.90;99.90
56076;DHT22;41951;49.022;12.066;2023-06-10T08:18:58;21.80;99.90
56076;DHT22;41951;49.022;12.066;2023-06-10T08:21:24;22.00;99.90
56076;DHT22;41951;49.022;12.066;2023-06-10T08:23:53;21.60;99.90
56076;DHT22;41951;49.022;12.066;2023-06-10T08:26:19;21.50;99.90
56076;DHT22;41951;49.022;12.066;2023-06-10T08:28:45;21.60;99.90
56076;DHT22;41951;49.022;12.066;2023-06-10T08:31:11;21.50;99.90
56076;DHT22;41951;49.022;12.066;2023-06-10T08:33:36;21.70;99.90
56076;DHT22;41951;49.022;12.066;2023-06-10T08:36:02;22.00;99.90
56076;DHT22;41951;49.022;12.066;2023-06-10T08:38:27;22.30;99.90
56076;DHT22;41951;49.022;12.066;2023-06-10T08:40:56;22.40;99.90
56076;DHT22;41951;49.022;12.066;2023-06-10T08:46:22;22.20;99.90
56076;DHT22;41951;49.022;12.066;2023-06-10T08:48:49;22.30;99.90
56076;DHT22;41951;49.022;12.066;2023-06-10T08:51:17;22.30;99.90
56076;DHT22;41951;49.022;12.066;2023-06-10T08:53:50;22.20;99.90
56076;DHT22;41951;49.022;12.066;2023-06-10T08:56:18;22.20;99.90
56076;DHT22;41951;49.022;12.066;2023-06-10T08:58:45;22.10;99.90
56076;DHT22;41951;49.022;12.066;2023-06-10T09:01:11;22.20;99.90
56076;DHT22;41951;49.022;12.066;2023-06-10T09:03:37;22.20;99.90
56076;DHT22;41951;49.022;12.066;2023-06-10T09:06:06;22.40;99.90
56076;DHT22;41951;49.022;12.066;2023-06-10T09:08:33;22.40;99.90
56076;DHT22;41951;49.022;12.066;2023-06-10T09:11:00;22.70;99.90
56076;DHT22;41951;49.022;12.066;2023-06-10T09:13:26;22.80;99.90
56076;DHT22;41951;49.022;12.066;2023-06-10T09:15:51;23.00;99.90
56076;DHT22;41951;49.022;12.066;2023-06-10T09:18:17;23.20;99.90
56076;DHT22;41951;49.022;12.066;2023-06-10T09:20:43;23.50;99.90
56076;DHT22;41951;49.022;12.066;2023-06-10T09:23:09;23.80;99.90
56076;DHT22;41951;49.022;12.066;2023-06-10T09:25:37;23.80;99.90
56076;DHT22;41951;49.022;12.066;2023-06-10T09:28:03;23.70;99.90
56076;DHT22;41951;49.022;12.066;2023-06-10T09:30:31;23.70;99.90
56076;DHT22;41951;49.022;12.066;2023-06-10T09:32:58;23.60;99.90
56076;DHT22;41951;49.022;12.066;2023-06-10T09:35:29;23.50;99.90
56076;DHT22;41951;49.022;12.066;2023-06-10T09:37:56;23.50;99.90
56076;DHT22;41951;49.022;12.066;2023-06-10T09:40:22;23.40;99.90
56076;DHT22;41951;49.022;12.066;2023-06-10T09:42:54;23.50;99.90
56076;DHT22;41951;49.022;12.066;2023-06-10T09:45:21;23.60;99.90
56076;DHT22;41951;49.022;12.066;2023-06-10T09:47:50;23.80;99.90
56076;DHT22;41951;49.022;12.066;2023-06-10T09:50:17;23.80;99.90
56076;DHT22;41951;49.022;12.066;2023-06-10T09:52:42;23.70;99.90
56076;DHT22;41951;49.022;12.066;2023-06-10T09:55:08;23.50;99.90
56076;DHT22;41951;49.022;12.066;2023-06-10T09:57:35;23.40;99.90
56076;DHT22;41951;49.022;12.066;2023-06-10T10:00:11;23.40;99.90
56076;DHT22;41951;49.022;12.066;2023-06-10T10:05:13;23.40;99.90
56076;DHT22;41951;49.022;12.066;2023-06-10T10:07:40;23.30;99.90
56076;DHT22;41951;49.022;12.066;2023-06-10T10:10:06;23.30;99.90
56076;DHT22;41951;49.022;12.066;2023-06-10T10:12:33;23.20;99.90
56076;DHT22;41951;49.022;12.066;2023-06-10T10:14:59;23.20;99.90
56076;DHT22;41951;49.022;12.066;2023-06-10T10:17:25;23.10;99.90
56076;DHT22;41951;49.022;12.066;2023-06-10T10:19:54;23.10;99.90
56076;DHT22;41951;49.022;12.066;2023-06-10T10:22:25;23.00;99.90
56076;DHT22;41951;49.022;12.066;2023-06-10T10:24:55;22.90;99.90
56076;DHT22;41951;49.022;12.066;2023-06-10T10:27:33;22.80;99.90
56076;DHT22;41951;49.022;12.066;2023-06-10T10:30:02;22.70;99.90
56076;DHT22;41951;49.022;12.066;2023-06-10T10:36:04;22.60;99.90
56076;DHT22;41951;49.022;12.066;2023-06-10T10:38:30;22.50;99.90
56076;DHT22;41951;49.022;12.066;2023-06-10T10:40:57;22.60;99.90
56076;DHT22;41951;49.022;12.066;2023-06-10T10:43:25;22.60;99.90
56076;DHT22;41951;49.022;12.066;2023-06-10T10:46:01;22.60;99.90
56076;DHT22;41951;49.022;12.066;2023-06-10T10:48:33;22.80;99.90
56076;DHT22;41951;49.022;12.066;2023-06-10T10:50:59;23.10;99.90
56076;DHT22;41951;49.022;12.066;2023-06-10T10:53:25;23.20;99.90
56076;DHT22;41951;49.022;12.066;2023-06-10T10:56:08;23.30;99.90
56076;DHT22;41951;49.022;12.066;2023-06-10T10:58:37;23.20;99.90
56076;DHT22;41951;49.022;12.066;2023-06-10T11:01:11;23.10;99.90
56076;DHT22;41951;49.022;12.066;2023-06-10T11:03:45;23.00;99.90
56076;DHT22;41951;49.022;12.066;2023-06-10T11:06:17;23.00;99.90
56076;DHT22;41951;49.022;12.066;2023-06-10T11:11:21;22.80;99.90
56076;DHT22;41951;49.022;12.066;2023-06-10T11:14:06;22.70;99.90
56076;DHT22;41951;49.022;12.066;2023-06-10T11:16:41;22.60;99.90
56076;DHT22;41951;49.022;12.066;2023-06-10T11:19:07;22.70;99.90
56076;DHT22;41951;49.022;12.066;2023-06-10T11:21:44;22.90;99.90
56076;DHT22;41951;49.022;12.066;2023-06-10T11:24:13;23.20;99.90
56076;DHT22;41951;49.022;12.066;2023-06-10T11:26:44;23.50;99.90
56076;DHT22;41951;49.022;12.066;2023-06-10T11:29:10;23.60;99.90
56076;DHT22;41951;49.022;12.066;2023-06-10T11:31:43;23.50;99.90
56076;DHT22;41951;49.022;12.066;2023-06-10T11:34:11;23.60;99.90
56076;DHT22;41951;49.022;12.066;2023-06-10T11:36:40;23.60;99.90
56076;DHT22;41951;49.022;12.066;2023-06-10T11:39:08;23.60;99.90
56076;DHT22;41951;49.022;12.066;2023-06-10T11:41:35;23.60;99.90
56076;DHT22;41951;49.022;12.066;2023-06-10T11:44:08;23.60;99.90
56076;DHT22;41951;49.022;12.066;2023-06-10T11:46:35;23.50;99.90
56076;DHT22;41951;49.022;12.066;2023-06-10T11:49:01;23.40;99.90
56076;DHT22;41951;49.022;12.066;2023-06-10T11:51:47;23.40;99.90
56076;DHT22;41951;49.022;12.066;2023-06-10T11:54:17;23.30;99.90
56076;DHT22;41951;49.022;12.066;2023-06-10T11:56:43;23.20;99.90
56076;DHT22;41951;49.022;12.066;2023-06-10T11:59:09;23.20;99.90
56076;DHT22;41951;49.022;12.066;2023-06-10T12:01:42;23.10;99.90
56076;DHT22;41951;49.022;12.066;2023-06-10T12:04:11;23.20;99.90
56076;DHT22;41951;49.022;12.066;2023-06-10T12:06:45;23.30;99.90
56076;DHT22;41951;49.022;12.066;2023-06-10T12:09:26;23.30;99.90
56076;DHT22;41951;49.022;12.066;2023-06-10T12:12:01;23.50;99.90
56076;DHT22;41951;49.022;12.066;2023-06-10T12:19:55;24.60;99.90
56076;DHT22;41951;49.022;12.066;2023-06-10T12:22:21;25.00;99.90
56076;DHT22;41951;49.022;12.066;2023-06-10T12:24:59;25.50;99.90
56076;DHT22;41951;49.022;12.066;2023-06-10T12:27:25;25.90;99.90
56076;DHT22;41951;49.022;12.066;2023-06-10T12:29:52;26.20;99.90
56076;DHT22;41951;49.022;12.066;2023-06-10T12:32:21;26.20;99.90
56076;DHT22;41951;49.022;12.066;2023-06-10T12:35:05;26.10;99.90
56076;DHT22;41951;49.022;12.066;2023-06-10T12:37:31;26.10;99.90
56076;DHT22;41951;49.022;12.066;2023-06-10T12:40:00;26.00;99.90
56076;DHT22;41951;49.022;12.066;2023-06-10T12:42:26;25.90;99.90
56076;DHT22;41951;49.022;12.066;2023-06-10T12:44:55;26.10;99.90
56076;DHT22;41951;49.022;12.066;2023-06-10T12:47:32;26.40;99.90
56076;DHT22;41951;49.022;12.066;2023-06-10T12:50:01;26.70;99.90
56076;DHT22;41951;49.022;12.066;2023-06-10T12:52:26;26.60;99.90
56076;DHT22;41951;49.022;12.066;2023-06-10T12:54:53;26.50;99.90
56076;DHT22;41951;49.022;12.066;2023-06-10T12:57:23;26.50;99.90
56076;DHT22;41951;49.022;12.066;2023-06-10T12:59:48;26.60;99.90
56076;DHT22;41951;49.022;12.066;2023-06-10T13:02:25;26.70;99.90
56076;DHT22;41951;49.022;12.066;2023-06-10T13:04:51;26.90;99.70
56076;DHT22;41951;49.022;12.066;2023-06-10T13:07:17;27.00;98.90
56076;DHT22;41951;49.022;12.066;2023-06-10T13:09:43;27.20;98.40
56076;DHT22;41951;49.022;12.066;2023-06-10T13:12:09;27.20;98.30
56076;DHT22;41951;49.022;12.066;2023-06-10T13:14:36;27.30;98.40
56076;DHT22;41951;49.022;12.066;2023-06-10T13:17:04;27.60;98.20
56076;DHT22;41951;49.022;12.066;2023-06-10T13:19:32;27.80;97.50
56076;DHT22;41951;49.022;12.066;2023-06-10T13:21:58;27.60;97.10
56076;DHT22;41951;49.022;12.066;2023-06-10T13:24:24;27.40;96.10
56076;DHT22;41951;49.022;12.066;2023-06-10T13:26:50;27.30;97.10
56076;DHT22;41951;49.022;12.066;2023-06-10T13:29:15;27.30;97.00
56076;DHT22;41951;49.022;12.066;2023-06-10T13:31:41;27.20;96.70
56076;DHT22;41951;49.022;12.066;2023-06-10T13:34:08;26.80;96.50
56076;DHT22;41951;49.022;12.066;2023-06-10T13:36:33;26.40;96.70
56076;DHT22;41951;49.022;12.066;2023-06-10T13:38:59;26.20;97.00
56076;DHT22;41951;49.022;12.066;2023-06-10T13:41:24;26.10;97.70
56076;DHT22;41951;49.022;12.066;2023-06-10T13:43:50;26.00;98.30
56076;DHT22;41951;49.022;12.066;2023-06-10T13:46:15;25.90;98.80
56076;DHT22;41951;49.022;12.066;2023-06-10T13:48:41;25.80;99.30
56076;DHT22;41951;49.022;12.066;2023-06-10T13:51:07;25.80;99.70
56076;DHT22;41951;49.022;12.066;2023-06-10T13:53:34;25.50;99.90
56076;DHT22;41951;49.022;12.066;2023-06-10T13:56:00;25.20;99.90
56076;DHT22;41951;49.022;12.066;2023-06-10T13:58:26;25.10;99.90
56076;DHT22;41951;49.022;12.066;2023-06-10T14:00:52;24.60;99.90
56076;DHT22;41951;49.022;12.066;2023-06-10T14:03:18;24.30;99.90
56076;DHT22;41951;49.022;12.066;2023-06-10T14:05:44;24.00;99.90
56076;DHT22;41951;49.022;12.066;2023-06-10T14:08:09;23.70;99.90
56076;DHT22;41951;49.022;12.066;2023-06-10T14:10:35;23.50;99.90
56076;DHT22;41951;49.022;12.066;2023-06-10T14:13:00;23.30;99.90
56076;DHT22;41951;49.022;12.066;2023-06-10T14:15:26;23.20;99.90
56076;DHT22;41951;49.022;12.066;2023-06-10T14:17:51;23.20;99.90
56076;DHT22;41951;49.022;12.066;2023-06-10T14:20:17;23.10;99.90
56076;DHT22;41951;49.022;12.066;2023-06-10T14:22:43;23.00;99.90
56076;DHT22;41951;49.022;12.066;2023-06-10T14:25:08;22.80;99.90
56076;DHT22;41951;49.022;12.066;2023-06-10T14:27:34;22.70;99.90
56076;DHT22;41951;49.022;12.066;2023-06-10T14:29:59;22.70;99.90
56076;DHT22;41951;49.022;12.066;2023-06-10T14:32:25;22.70;99.90
56076;DHT22;41951;49.022;12.066;2023-06-10T14:34:50;22.80;99.90
56076;DHT22;41951;49.022;12.066;2023-06-10T14:37:16;22.80;99.90
56076;DHT22;41951;49.022;12.066;2023-06-10T14:39:42;22.80;99.90
56076;DHT22;41951;49.022;12.066;2023-06-10T14:42:07;22.80;99.90
56076;DHT22;41951;49.022;12.066;2023-06-10T14:44:33;22.70;99.90
56076;DHT22;41951;49.022;12.066;2023-06-10T14:46:58;22.60;99.90
56076;DHT22;41951;49.022;12.066;2023-06-10T14:49:24;22.60;99.90
56076;DHT22;41951;49.022;12.066;2023-06-10T14:51:50;22.70;99.90
56076;DHT22;41951;49.022;12.066;2023-06-10T14:54:15;22.70;99.90
56076;DHT22;41951;49.022;12.066;2023-06-10T14:56:41;22.80;99.90
56076;DHT22;41951;49.022;12.066;2023-06-10T14:59:07;22.80;99.90
56076;DHT22;41951;49.022;12.066;2023-06-10T15:01:32;22.80;99.90
56076;DHT22;41951;49.022;12.066;2023-06-10T15:03:58;23.00;99.90
56076;DHT22;41951;49.022;12.066;2023-06-10T15:06:23;23.50;99.90
56076;DHT22;41951;49.022;12.066;2023-06-10T15:08:49;23.80;99.90
56076;DHT22;41951;49.022;12.066;2023-06-10T15:11:15;24.40;99.90
56076;DHT22;41951;49.022;12.066;2023-06-10T15:13:41;25.10;99.90
56076;DHT22;41951;49.022;12.066;2023-06-10T15:16:07;25.80;99.90
56076;DHT22;41951;49.022;12.066;2023-06-10T15:18:33;26.50;99.90
56076;DHT22;41951;49.022;12.066;2023-06-10T15:20:58;26.80;99.90
56076;DHT22;41951;49.022;12.066;2023-06-10T15:23:24;26.40;99.90
56076;DHT22;41951;49.022;12.066;2023-06-10T15:25:50;26.00;99.90
56076;DHT22;41951;49.022;12.066;2023-06-10T15:28:15;25.90;99.90
56076;DHT22;41951;49.022;12.066;2023-06-10T15:30:41;25.80;99.90